Alva, Florida
Current Conditions -  °F | °C
As of 10:53 PM on Friday 28 Nov 2014 (Local Time) from KRSW Reporting Station
Clear Clear  
Wind Chill: 52°   Ceiling: Unl
Heat Index: 52°   Visibility: 10mi
Dew Point: 44°   Wind: 9mph
Humidity: 74%   Direction: 20°NNE
Pressure: 30.26"   Gusts: NA
Location:  26.72°N, 81.61°W
Report Text: KRSW 290353Z 02008KT 10SM CLR 11/07 A3026 RMK AO2 SLP245 T01110067
Loading
Personal Weather Stations






























Interactive Weather Map New forecast layout! Learn more

10-Day Weather Forecast

Advertisements
Track Severe Weather on mobile